sensor_id;sensor_type;location;lat;lon;timestamp;temperature;humidity
7000;DHT22;3540;53.242;10.408;2024-01-06T00:02:23;0.20;99.90
7000;DHT22;3540;53.242;10.408;2024-01-06T00:04:49;0.20;99.90
7000;DHT22;3540;53.242;10.408;2024-01-06T00:07:14;0.20;99.90
7000;DHT22;3540;53.242;10.408;2024-01-06T00:09:40;0.20;99.90
7000;DHT22;3540;53.242;10.408;2024-01-06T00:12:06;0.30;99.90
7000;DHT22;3540;53.242;10.408;2024-01-06T00:14:31;0.20;99.90
7000;DHT22;3540;53.242;10.408;2024-01-06T00:16:57;0.20;99.90
7000;DHT22;3540;53.242;10.408;2024-01-06T00:19:23;0.30;99.90
7000;DHT22;3540;53.242;10.408;2024-01-06T00:21:48;0.20;99.90
7000;DHT22;3540;53.242;10.408;2024-01-06T00:24:14;0.20;99.90
7000;DHT22;3540;53.242;10.408;2024-01-06T00:26:40;0.20;99.90
7000;DHT22;3540;53.242;10.408;2024-01-06T00:29:05;0.20;99.90
7000;DHT22;3540;53.242;10.408;2024-01-06T00:31:31;0.30;99.90
7000;DHT22;3540;53.242;10.408;2024-01-06T00:33:56;0.20;99.90
7000;DHT22;3540;53.242;10.408;2024-01-06T00:36:22;0.20;99.90
7000;DHT22;3540;53.242;10.408;2024-01-06T00:38:48;0.20;99.90
7000;DHT22;3540;53.242;10.408;2024-01-06T00:41:14;0.10;99.90
7000;DHT22;3540;53.242;10.408;2024-01-06T00:43:39;0.20;99.90
7000;DHT22;3540;53.242;10.408;2024-01-06T00:46:05;0.20;99.90
7000;DHT22;3540;53.242;10.408;2024-01-06T00:48:31;0.20;99.90
7000;DHT22;3540;53.242;10.408;2024-01-06T00:50:56;0.20;99.90
7000;DHT22;3540;53.242;10.408;2024-01-06T00:53:22;0.20;99.90
7000;DHT22;3540;53.242;10.408;2024-01-06T00:55:47;0.10;99.90
7000;DHT22;3540;53.242;10.408;2024-01-06T00:58:13;0.20;99.90
7000;DHT22;3540;53.242;10.408;2024-01-06T01:00:39;0.20;99.90
7000;DHT22;3540;53.242;10.408;2024-01-06T01:03:05;0.20;99.90
7000;DHT22;3540;53.242;10.408;2024-01-06T01:05:31;0.20;99.90
7000;DHT22;3540;53.242;10.408;2024-01-06T01:07:56;0.20;99.90
7000;DHT22;3540;53.242;10.408;2024-01-06T01:10:22;0.20;99.90
7000;DHT22;3540;53.242;10.408;2024-01-06T01:12:47;0.10;99.90
7000;DHT22;3540;53.242;10.408;2024-01-06T01:15:13;0.10;99.90
7000;DHT22;3540;53.242;10.408;2024-01-06T01:17:40;0.10;99.90
7000;DHT22;3540;53.242;10.408;2024-01-06T01:20:06;0.20;99.90
7000;DHT22;3540;53.242;10.408;2024-01-06T01:22:32;0.20;99.90
7000;DHT22;3540;53.242;10.408;2024-01-06T01:24:58;0.10;99.90
7000;DHT22;3540;53.242;10.408;2024-01-06T01:27:23;0.10;99.90
7000;DHT22;3540;53.242;10.408;2024-01-06T01:29:49;0.10;99.90
7000;DHT22;3540;53.242;10.408;2024-01-06T01:32:18;0.10;99.90
7000;DHT22;3540;53.242;10.408;2024-01-06T01:34:44;0.10;99.90
7000;DHT22;3540;53.242;10.408;2024-01-06T01:37:09;0.00;99.90
7000;DHT22;3540;53.242;10.408;2024-01-06T01:39:35;0.10;99.90
7000;DHT22;3540;53.242;10.408;2024-01-06T01:42:00;0.10;99.90
7000;DHT22;3540;53.242;10.408;2024-01-06T01:44:26;0.10;99.90
7000;DHT22;3540;53.242;10.408;2024-01-06T01:46:51;0.10;99.90
7000;DHT22;3540;53.242;10.408;2024-01-06T01:49:17;0.10;99.90
7000;DHT22;3540;53.242;10.408;2024-01-06T01:51:43;0.10;99.90
7000;DHT22;3540;53.242;10.408;2024-01-06T01:54:09;0.10;99.90
7000;DHT22;3540;53.242;10.408;2024-01-06T01:56:36;0.10;99.90
7000;DHT22;3540;53.242;10.408;2024-01-06T01:59:14;0.10;99.90
7000;DHT22;3540;53.242;10.408;2024-01-06T02:01:42;0.10;99.90
7000;DHT22;3540;53.242;10.408;2024-01-06T02:04:08;0.10;99.90
7000;DHT22;3540;53.242;10.408;2024-01-06T02:06:34;0.10;99.90
7000;DHT22;3540;53.242;10.408;2024-01-06T02:09:00;0.10;99.90
7000;DHT22;3540;53.242;10.408;2024-01-06T02:11:26;0.10;99.90
7000;DHT22;3540;53.242;10.408;2024-01-06T02:13:51;0.10;99.90
7000;DHT22;3540;53.242;10.408;2024-01-06T02:16:17;0.10;99.90
7000;DHT22;3540;53.242;10.408;2024-01-06T02:18:42;0.10;99.90
7000;DHT22;3540;53.242;10.408;2024-01-06T02:21:09;0.10;99.90
7000;DHT22;3540;53.242;10.408;2024-01-06T02:23:36;0.10;99.90
7000;DHT22;3540;53.242;10.408;2024-01-06T02:26:02;0.10;99.90
7000;DHT22;3540;53.242;10.408;2024-01-06T02:28:28;0.10;99.90
7000;DHT22;3540;53.242;10.408;2024-01-06T02:30:54;0.10;99.90
7000;DHT22;3540;53.242;10.408;2024-01-06T02:33:19;0.10;99.90
7000;DHT22;3540;53.242;10.408;2024-01-06T02:35:46;0.10;99.90
7000;DHT22;3540;53.242;10.408;2024-01-06T02:38:12;0.10;99.90
7000;DHT22;3540;53.242;10.408;2024-01-06T02:40:37;0.10;99.90
7000;DHT22;3540;53.242;10.408;2024-01-06T02:43:03;0.10;99.90
7000;DHT22;3540;53.242;10.408;2024-01-06T02:45:29;0.10;99.90
7000;DHT22;3540;53.242;10.408;2024-01-06T02:47:54;0.10;99.90
7000;DHT22;3540;53.242;10.408;2024-01-06T02:50:20;0.10;99.90
7000;DHT22;3540;53.242;10.408;2024-01-06T02:52:46;0.10;99.90
7000;DHT22;3540;53.242;10.408;2024-01-06T02:55:12;0.20;99.90
7000;DHT22;3540;53.242;10.408;2024-01-06T02:57:37;0.10;99.90
7000;DHT22;3540;53.242;10.408;2024-01-06T03:00:03;0.10;99.90
7000;DHT22;3540;53.242;10.408;2024-01-06T03:02:29;0.10;99.90
7000;DHT22;3540;53.242;10.408;2024-01-06T03:04:55;0.10;99.90
7000;DHT22;3540;53.242;10.408;2024-01-06T03:07:21;0.10;99.90
7000;DHT22;3540;53.242;10.408;2024-01-06T03:09:47;0.00;99.90
7000;DHT22;3540;53.242;10.408;2024-01-06T03:12:13;0.00;99.90
7000;DHT22;3540;53.242;10.408;2024-01-06T03:14:38;0.00;99.90
7000;DHT22;3540;53.242;10.408;2024-01-06T03:17:04;0.00;99.90
7000;DHT22;3540;53.242;10.408;2024-01-06T03:19:33;0.00;99.90
7000;DHT22;3540;53.242;10.408;2024-01-06T03:21:58;0.00;99.90
7000;DHT22;3540;53.242;10.408;2024-01-06T03:24:25;0.00;99.90
7000;DHT22;3540;53.242;10.408;2024-01-06T03:26:51;0.10;99.90
7000;DHT22;3540;53.242;10.408;2024-01-06T03:29:17;0.10;99.90
7000;DHT22;3540;53.242;10.408;2024-01-06T03:31:43;0.10;99.90
7000;DHT22;3540;53.242;10.408;2024-01-06T03:34:09;0.00;99.90
7000;DHT22;3540;53.242;10.408;2024-01-06T03:36:39;0.00;99.90
7000;DHT22;3540;53.242;10.408;2024-01-06T03:39:04;0.00;99.90
7000;DHT22;3540;53.242;10.408;2024-01-06T03:41:30;0.00;99.90
7000;DHT22;3540;53.242;10.408;2024-01-06T03:43:56;0.00;99.90
7000;DHT22;3540;53.242;10.408;2024-01-06T03:46:22;0.00;99.90
7000;DHT22;3540;53.242;10.408;2024-01-06T03:48:48;0.00;99.90
7000;DHT22;3540;53.242;10.408;2024-01-06T03:51:14;0.10;99.90
7000;DHT22;3540;53.242;10.408;2024-01-06T03:53:39;0.10;99.90
7000;DHT22;3540;53.242;10.408;2024-01-06T03:56:06;0.10;99.90
7000;DHT22;3540;53.242;10.408;2024-01-06T03:58:32;0.10;99.90
7000;DHT22;3540;53.242;10.408;2024-01-06T04:00:57;0.10;99.90
7000;DHT22;3540;53.242;10.408;2024-01-06T04:03:23;0.00;99.90
7000;DHT22;3540;53.242;10.408;2024-01-06T04:05:48;0.10;99.90
7000;DHT22;3540;53.242;10.408;2024-01-06T04:08:14;0.10;99.90
7000;DHT22;3540;53.242;10.408;2024-01-06T04:10:40;0.10;99.90
7000;DHT22;3540;53.242;10.408;2024-01-06T04:13:10;0.10;99.90
7000;DHT22;3540;53.242;10.408;2024-01-06T04:15:36;0.10;99.90
7000;DHT22;3540;53.242;10.408;2024-01-06T04:18:02;0.10;99.90
7000;DHT22;3540;53.242;10.408;2024-01-06T04:20:29;0.10;99.90
7000;DHT22;3540;53.242;10.408;2024-01-06T04:22:55;0.10;99.90
7000;DHT22;3540;53.242;10.408;2024-01-06T04:25:20;0.10;99.90
7000;DHT22;3540;53.242;10.408;2024-01-06T04:27:46;0.10;99.90
7000;DHT22;3540;53.242;10.408;2024-01-06T04:30:14;0.10;99.90
7000;DHT22;3540;53.242;10.408;2024-01-06T04:32:40;0.10;99.90
7000;DHT22;3540;53.242;10.408;2024-01-06T04:35:06;0.10;99.90
7000;DHT22;3540;53.242;10.408;2024-01-06T04:37:32;0.10;99.90
7000;DHT22;3540;53.242;10.408;2024-01-06T04:39:57;0.10;99.90
7000;DHT22;3540;53.242;10.408;2024-01-06T04:42:23;0.10;99.90
7000;DHT22;3540;53.242;10.408;2024-01-06T04:44:52;0.00;99.90
7000;DHT22;3540;53.242;10.408;2024-01-06T04:47:18;0.00;99.90
7000;DHT22;3540;53.242;10.408;2024-01-06T04:49:44;0.00;99.90
7000;DHT22;3540;53.242;10.408;2024-01-06T04:52:10;0.00;99.90
7000;DHT22;3540;53.242;10.408;2024-01-06T04:54:35;0.00;99.90
7000;DHT22;3540;53.242;10.408;2024-01-06T04:57:01;0.00;99.90
7000;DHT22;3540;53.242;10.408;2024-01-06T04:59:27;0.10;99.90
7000;DHT22;3540;53.242;10.408;2024-01-06T05:01:53;0.10;99.90
7000;DHT22;3540;53.242;10.408;2024-01-06T05:04:19;0.10;99.90
7000;DHT22;3540;53.242;10.408;2024-01-06T05:06:45;0.10;99.90
7000;DHT22;3540;53.242;10.408;2024-01-06T05:09:10;0.00;99.90
7000;DHT22;3540;53.242;10.408;2024-01-06T05:11:36;0.10;99.90
7000;DHT22;3540;53.242;10.408;2024-01-06T05:14:02;0.00;99.90
7000;DHT22;3540;53.242;10.408;2024-01-06T05:16:27;0.00;99.90
7000;DHT22;3540;53.242;10.408;2024-01-06T05:18:53;0.00;99.90
7000;DHT22;3540;53.242;10.408;2024-01-06T05:21:19;0.00;99.90
7000;DHT22;3540;53.242;10.408;2024-01-06T05:23:45;0.00;99.90
7000;DHT22;3540;53.242;10.408;2024-01-06T05:26:11;-0.10;99.90
7000;DHT22;3540;53.242;10.408;2024-01-06T05:28:38;-0.10;99.90
7000;DHT22;3540;53.242;10.408;2024-01-06T05:31:04;0.00;99.90
7000;DHT22;3540;53.242;10.408;2024-01-06T05:33:29;0.00;99.90
7000;DHT22;3540;53.242;10.408;2024-01-06T05:35:55;0.00;99.90
7000;DHT22;3540;53.242;10.408;2024-01-06T05:38:20;-0.10;99.90
7000;DHT22;3540;53.242;10.408;2024-01-06T05:40:46;0.00;99.90
7000;DHT22;3540;53.242;10.408;2024-01-06T05:43:11;0.00;99.90
7000;DHT22;3540;53.242;10.408;2024-01-06T05:45:37;0.00;99.90
7000;DHT22;3540;53.242;10.408;2024-01-06T05:48:08;0.00;99.90
7000;DHT22;3540;53.242;10.408;2024-01-06T05:50:33;-0.10;99.90
7000;DHT22;3540;53.242;10.408;2024-01-06T05:52:59;-0.10;99.90
7000;DHT22;3540;53.242;10.408;2024-01-06T05:55:25;-0.20;99.90
7000;DHT22;3540;53.242;10.408;2024-01-06T05:57:50;-0.10;99.90
7000;DHT22;3540;53.242;10.408;2024-01-06T06:00:16;-0.10;99.90
7000;DHT22;3540;53.242;10.408;2024-01-06T06:02:42;-0.10;99.90
7000;DHT22;3540;53.242;10.408;2024-01-06T06:05:08;-0.10;99.90
7000;DHT22;3540;53.242;10.408;2024-01-06T06:07:33;-0.10;99.90
7000;DHT22;3540;53.242;10.408;2024-01-06T06:10:06;-0.10;99.90
7000;DHT22;3540;53.242;10.408;2024-01-06T06:12:31;-0.10;99.90
7000;DHT22;3540;53.242;10.408;2024-01-06T06:14:57;-0.20;99.90
7000;DHT22;3540;53.242;10.408;2024-01-06T06:17:23;-0.10;99.90
7000;DHT22;3540;53.242;10.408;2024-01-06T06:19:48;-0.10;99.90
7000;DHT22;3540;53.242;10.408;2024-01-06T06:22:14;-0.10;99.90
7000;DHT22;3540;53.242;10.408;2024-01-06T06:24:39;-0.10;99.90
7000;DHT22;3540;53.242;10.408;2024-01-06T06:27:05;-0.10;99.90
7000;DHT22;3540;53.242;10.408;2024-01-06T06:29:31;-0.20;99.90
7000;DHT22;3540;53.242;10.408;2024-01-06T06:31:56;-0.20;99.90
7000;DHT22;3540;53.242;10.408;2024-01-06T06:34:22;-0.10;99.90
7000;DHT22;3540;53.242;10.408;2024-01-06T06:36:48;-0.10;99.90
7000;DHT22;3540;53.242;10.408;2024-01-06T06:39:14;-0.10;99.90
7000;DHT22;3540;53.242;10.408;2024-01-06T06:41:39;-0.10;99.90
7000;DHT22;3540;53.242;10.408;2024-01-06T06:44:05;-0.10;99.90
7000;DHT22;3540;53.242;10.408;2024-01-06T06:46:30;-0.20;99.90
7000;DHT22;3540;53.242;10.408;2024-01-06T06:48:57;-0.10;99.90
7000;DHT22;3540;53.242;10.408;2024-01-06T06:51:22;-0.10;99.90
7000;DHT22;3540;53.242;10.408;2024-01-06T06:53:50;-0.20;99.90
7000;DHT22;3540;53.242;10.408;2024-01-06T06:56:16;-0.20;99.90
7000;DHT22;3540;53.242;10.408;2024-01-06T06:58:42;-0.20;99.90
7000;DHT22;3540;53.242;10.408;2024-01-06T07:01:08;-0.10;99.90
7000;DHT22;3540;53.242;10.408;2024-01-06T07:03:34;-0.20;99.90
7000;DHT22;3540;53.242;10.408;2024-01-06T07:05:59;-0.20;99.90
7000;DHT22;3540;53.242;10.408;2024-01-06T07:08:25;-0.10;99.90
7000;DHT22;3540;53.242;10.408;2024-01-06T07:10:51;-0.20;99.90
7000;DHT22;3540;53.242;10.408;2024-01-06T07:13:16;-0.20;99.90
7000;DHT22;3540;53.242;10.408;2024-01-06T07:15:42;-0.20;99.90
7000;DHT22;3540;53.242;10.408;2024-01-06T07:18:08;-0.20;99.90
7000;DHT22;3540;53.242;10.408;2024-01-06T07:20:33;-0.20;99.90
7000;DHT22;3540;53.242;10.408;2024-01-06T07:22:59;-0.20;99.90
7000;DHT22;3540;53.242;10.408;2024-01-06T07:25:24;-0.20;99.90
7000;DHT22;3540;53.242;10.408;2024-01-06T07:27:50;-0.20;99.90
7000;DHT22;3540;53.242;10.408;2024-01-06T07:30:16;-0.20;99.90
7000;DHT22;3540;53.242;10.408;2024-01-06T07:32:41;-0.30;99.90
7000;DHT22;3540;53.242;10.408;2024-01-06T07:35:08;-0.20;99.90
7000;DHT22;3540;53.242;10.408;2024-01-06T07:37:33;-0.20;99.90
7000;DHT22;3540;53.242;10.408;2024-01-06T07:39:59;-0.20;99.90
7000;DHT22;3540;53.242;10.408;2024-01-06T07:42:24;-0.20;99.90
7000;DHT22;3540;53.242;10.408;2024-01-06T07:44:50;-0.20;99.90
7000;DHT22;3540;53.242;10.408;2024-01-06T07:47:16;-0.20;99.90
7000;DHT22;3540;53.242;10.408;2024-01-06T07:49:41;-0.30;99.90
7000;DHT22;3540;53.242;10.408;2024-01-06T07:52:07;-0.30;99.90
7000;DHT22;3540;53.242;10.408;2024-01-06T07:54:33;-0.30;99.90
7000;DHT22;3540;53.242;10.408;2024-01-06T07:56:58;-0.30;99.90
7000;DHT22;3540;53.242;10.408;2024-01-06T07:59:24;-0.30;99.90
7000;DHT22;3540;53.242;10.408;2024-01-06T08:01:50;-0.30;99.90
7000;DHT22;3540;53.242;10.408;2024-01-06T08:04:15;-0.30;99.90
7000;DHT22;3540;53.242;10.408;2024-01-06T08:06:41;-0.40;99.90
7000;DHT22;3540;53.242;10.408;2024-01-06T08:09:07;-0.40;99.90
7000;DHT22;3540;53.242;10.408;2024-01-06T08:11:33;-0.40;99.90
7000;DHT22;3540;53.242;10.408;2024-01-06T08:13:59;-0.50;99.90
7000;DHT22;3540;53.242;10.408;2024-01-06T08:16:24;-0.50;99.90
7000;DHT22;3540;53.242;10.408;2024-01-06T08:18:50;-0.40;99.90
7000;DHT22;3540;53.242;10.408;2024-01-06T08:21:16;-0.50;99.90
7000;DHT22;3540;53.242;10.408;2024-01-06T08:23:41;-0.50;99.90
7000;DHT22;3540;53.242;10.408;2024-01-06T08:26:07;-0.50;99.90
7000;DHT22;3540;53.242;10.408;2024-01-06T08:28:33;-0.50;99.90
7000;DHT22;3540;53.242;10.408;2024-01-06T08:30:58;-0.50;99.90
7000;DHT22;3540;53.242;10.408;2024-01-06T08:33:24;-0.40;99.90
7000;DHT22;3540;53.242;10.408;2024-01-06T08:35:50;-0.50;99.90
7000;DHT22;3540;53.242;10.408;2024-01-06T08:38:15;-0.50;99.90
7000;DHT22;3540;53.242;10.408;2024-01-06T08:40:41;-0.50;99.90
7000;DHT22;3540;53.242;10.408;2024-01-06T08:43:07;-0.50;99.90
7000;DHT22;3540;53.242;10.408;2024-01-06T08:45:32;-0.50;99.90
7000;DHT22;3540;53.242;10.408;2024-01-06T08:47:58;-0.50;99.90
7000;DHT22;3540;53.242;10.408;2024-01-06T08:50:24;-0.60;99.90
7000;DHT22;3540;53.242;10.408;2024-01-06T08:52:49;-0.50;99.90
7000;DHT22;3540;53.242;10.408;2024-01-06T08:55:15;-0.60;99.90
7000;DHT22;3540;53.242;10.408;2024-01-06T08:57:42;-0.60;99.90
7000;DHT22;3540;53.242;10.408;2024-01-06T09:00:08;-0.50;99.90
7000;DHT22;3540;53.242;10.408;2024-01-06T09:02:34;-0.50;99.90
7000;DHT22;3540;53.242;10.408;2024-01-06T09:05:01;-0.50;99.90
7000;DHT22;3540;53.242;10.408;2024-01-06T09:07:27;-0.50;99.90
7000;DHT22;3540;53.242;10.408;2024-01-06T09:09:52;-0.50;99.90
7000;DHT22;3540;53.242;10.408;2024-01-06T09:12:18;-0.50;99.90
7000;DHT22;3540;53.242;10.408;2024-01-06T09:14:43;-0.60;99.90
7000;DHT22;3540;53.242;10.408;2024-01-06T09:17:09;-0.60;99.90
7000;DHT22;3540;53.242;10.408;2024-01-06T09:19:35;-0.60;99.90
7000;DHT22;3540;53.242;10.408;2024-01-06T09:22:00;-0.50;99.90
7000;DHT22;3540;53.242;10.408;2024-01-06T09:24:26;-0.60;99.90
7000;DHT22;3540;53.242;10.408;2024-01-06T09:26:51;-0.50;99.90
7000;DHT22;3540;53.242;10.408;2024-01-06T09:29:17;-0.50;99.90
7000;DHT22;3540;53.242;10.408;2024-01-06T09:31:43;-0.50;99.90
7000;DHT22;3540;53.242;10.408;2024-01-06T09:34:11;-0.50;99.90
7000;DHT22;3540;53.242;10.408;2024-01-06T09:36:38;-0.50;99.90
7000;DHT22;3540;53.242;10.408;2024-01-06T09:39:03;-0.50;99.90
7000;DHT22;3540;53.242;10.408;2024-01-06T09:41:30;-0.50;99.90
7000;DHT22;3540;53.242;10.408;2024-01-06T09:43:56;-0.60;99.90
7000;DHT22;3540;53.242;10.408;2024-01-06T09:46:25;-0.60;99.90
7000;DHT22;3540;53.242;10.408;2024-01-06T09:48:57;-0.60;99.90
7000;DHT22;3540;53.242;10.408;2024-01-06T09:51:24;-0.60;99.90
7000;DHT22;3540;53.242;10.408;2024-01-06T09:56:16;-0.60;99.90
7000;DHT22;3540;53.242;10.408;2024-01-06T09:58:43;-0.60;99.90
7000;DHT22;3540;53.242;10.408;2024-01-06T10:01:10;-0.60;99.90
7000;DHT22;3540;53.242;10.408;2024-01-06T10:03:37;-0.60;99.90
7000;DHT22;3540;53.242;10.408;2024-01-06T10:06:03;-0.50;99.90
7000;DHT22;3540;53.242;10.408;2024-01-06T10:08:30;-0.50;99.90
7000;DHT22;3540;53.242;10.408;2024-01-06T10:10:58;-0.70;99.90
7000;DHT22;3540;53.242;10.408;2024-01-06T10:13:25;-0.60;99.90
7000;DHT22;3540;53.242;10.408;2024-01-06T10:15:50;-0.60;99.90
7000;DHT22;3540;53.242;10.408;2024-01-06T10:18:16;-0.50;99.90
7000;DHT22;3540;53.242;10.408;2024-01-06T10:20:44;-0.60;99.90
7000;DHT22;3540;53.242;10.408;2024-01-06T10:23:10;-0.60;99.90
7000;DHT22;3540;53.242;10.408;2024-01-06T10:25:37;-0.70;99.90
7000;DHT22;3540;53.242;10.408;2024-01-06T10:28:02;-0.60;99.90
7000;DHT22;3540;53.242;10.408;2024-01-06T10:30:28;-0.70;99.90
7000;DHT22;3540;53.242;10.408;2024-01-06T10:32:54;-0.60;99.90
7000;DHT22;3540;53.242;10.408;2024-01-06T10:35:20;-0.60;99.90
7000;DHT22;3540;53.242;10.408;2024-01-06T10:37:45;-0.60;99.90
7000;DHT22;3540;53.242;10.408;2024-01-06T10:40:14;-0.60;99.90
7000;DHT22;3540;53.242;10.408;2024-01-06T10:42:42;-0.60;99.90
7000;DHT22;3540;53.242;10.408;2024-01-06T10:45:09;-0.60;99.90
7000;DHT22;3540;53.242;10.408;2024-01-06T10:47:36;-0.60;99.90
7000;DHT22;3540;53.242;10.408;2024-01-06T10:50:03;-0.60;99.90
7000;DHT22;3540;53.242;10.408;2024-01-06T10:52:29;-0.60;99.90
7000;DHT22;3540;53.242;10.408;2024-01-06T10:54:56;-0.60;99.90
7000;DHT22;3540;53.242;10.408;2024-01-06T10:57:22;-0.60;99.90
7000;DHT22;3540;53.242;10.408;2024-01-06T10:59:52;-0.60;99.90
7000;DHT22;3540;53.242;10.408;2024-01-06T11:02:18;-0.60;99.90
7000;DHT22;3540;53.242;10.408;2024-01-06T11:04:46;-0.60;99.90
7000;DHT22;3540;53.242;10.408;2024-01-06T11:07:18;-0.50;99.90
7000;DHT22;3540;53.242;10.408;2024-01-06T11:10:02;-0.60;99.90
7000;DHT22;3540;53.242;10.408;2024-01-06T11:12:31;-0.60;99.90
7000;DHT22;3540;53.242;10.408;2024-01-06T11:14:57;-0.50;99.90
7000;DHT22;3540;53.242;10.408;2024-01-06T11:18:01;-0.50;99.90
7000;DHT22;3540;53.242;10.408;2024-01-06T11:20:26;-0.60;99.90
7000;DHT22;3540;53.242;10.408;2024-01-06T11:22:52;-0.50;99.90
7000;DHT22;3540;53.242;10.408;2024-01-06T11:25:20;-0.60;99.90
7000;DHT22;3540;53.242;10.408;2024-01-06T11:27:47;-0.60;99.90
7000;DHT22;3540;53.242;10.408;2024-01-06T11:30:24;-0.60;99.90
7000;DHT22;3540;53.242;10.408;2024-01-06T11:32:55;-0.60;99.90
7000;DHT22;3540;53.242;10.408;2024-01-06T11:35:26;-0.60;99.90
7000;DHT22;3540;53.242;10.408;2024-01-06T11:37:55;-0.60;99.90
7000;DHT22;3540;53.242;10.408;2024-01-06T11:43:10;-0.50;99.90
7000;DHT22;3540;53.242;10.408;2024-01-06T11:45:40;-0.50;99.90
7000;DHT22;3540;53.242;10.408;2024-01-06T11:48:08;-0.60;99.90
7000;DHT22;3540;53.242;10.408;2024-01-06T11:50:36;-0.60;99.90
7000;DHT22;3540;53.242;10.408;2024-01-06T11:53:02;-0.50;99.90
7000;DHT22;3540;53.242;10.408;2024-01-06T11:55:28;-0.40;99.90
7000;DHT22;3540;53.242;10.408;2024-01-06T11:57:58;-0.60;99.90
7000;DHT22;3540;53.242;10.408;2024-01-06T12:00:27;-0.60;99.90
7000;DHT22;3540;53.242;10.408;2024-01-06T12:02:57;-0.60;99.90
7000;DHT22;3540;53.242;10.408;2024-01-06T12:05:24;-0.60;99.90
7000;DHT22;3540;53.242;10.408;2024-01-06T12:07:59;-0.50;99.90
7000;DHT22;3540;53.242;10.408;2024-01-06T12:10:26;-0.50;99.90
7000;DHT22;3540;53.242;10.408;2024-01-06T12:13:00;-0.40;99.90
7000;DHT22;3540;53.242;10.408;2024-01-06T12:15:29;-0.40;99.90
7000;DHT22;3540;53.242;10.408;2024-01-06T12:17:56;-0.40;99.90
7000;DHT22;3540;53.242;10.408;2024-01-06T12:20:22;-0.50;99.90
7000;DHT22;3540;53.242;10.408;2024-01-06T12:22:52;-0.40;99.90
7000;DHT22;3540;53.242;10.408;2024-01-06T12:25:21;-0.40;99.90
7000;DHT22;3540;53.242;10.408;2024-01-06T12:27:48;-0.40;99.90
7000;DHT22;3540;53.242;10.408;2024-01-06T12:30:15;-0.50;99.90
7000;DHT22;3540;53.242;10.408;2024-01-06T12:32:43;-0.50;99.90
7000;DHT22;3540;53.242;10.408;2024-01-06T12:35:09;-0.50;99.90
7000;DHT22;3540;53.242;10.408;2024-01-06T12:37:36;-0.60;99.90
7000;DHT22;3540;53.242;10.408;2024-01-06T12:40:02;-0.50;99.90
7000;DHT22;3540;53.242;10.408;2024-01-06T12:42:27;-0.50;99.90
7000;DHT22;3540;53.242;10.408;2024-01-06T12:44:53;-0.50;99.90
7000;DHT22;3540;53.242;10.408;2024-01-06T12:47:19;-0.60;99.90
7000;DHT22;3540;53.242;10.408;2024-01-06T12:49:44;-0.60;99.90
7000;DHT22;3540;53.242;10.408;2024-01-06T12:52:11;-0.60;99.90
7000;DHT22;3540;53.242;10.408;2024-01-06T12:54:37;-0.60;99.90
7000;DHT22;3540;53.242;10.408;2024-01-06T12:57:03;-0.60;99.90
7000;DHT22;3540;53.242;10.408;2024-01-06T12:59:29;-0.60;99.90
7000;DHT22;3540;53.242;10.408;2024-01-06T13:01:56;-0.60;99.90
7000;DHT22;3540;53.242;10.408;2024-01-06T13:04:22;-0.60;99.90
7000;DHT22;3540;53.242;10.408;2024-01-06T13:06:48;-0.60;99.90
7000;DHT22;3540;53.242;10.408;2024-01-06T13:09:15;-0.60;99.90
7000;DHT22;3540;53.242;10.408;2024-01-06T13:11:42;-0.70;99.90
7000;DHT22;3540;53.242;10.408;2024-01-06T13:14:08;-0.70;99.90
7000;DHT22;3540;53.242;10.408;2024-01-06T13:16:34;-0.70;99.90
7000;DHT22;3540;53.242;10.408;2024-01-06T13:19:01;-0.60;99.90
7000;DHT22;3540;53.242;10.408;2024-01-06T13:21:27;-0.60;99.90
7000;DHT22;3540;53.242;10.408;2024-01-06T13:23:54;-0.70;99.90
7000;DHT22;3540;53.242;10.408;2024-01-06T13:26:25;-0.70;99.90
7000;DHT22;3540;53.242;10.408;2024-01-06T13:28:50;-0.70;99.90
7000;DHT22;3540;53.242;10.408;2024-01-06T13:31:16;-0.70;99.90
7000;DHT22;3540;53.242;10.408;2024-01-06T13:33:41;-0.70;99.90
7000;DHT22;3540;53.242;10.408;2024-01-06T13:36:07;-0.70;99.90
7000;DHT22;3540;53.242;10.408;2024-01-06T13:38:33;-0.70;99.90
7000;DHT22;3540;53.242;10.408;2024-01-06T13:40:58;-0.70;99.90
7000;DHT22;3540;53.242;10.408;2024-01-06T13:43:24;-0.80;99.90
7000;DHT22;3540;53.242;10.408;2024-01-06T13:45:49;-0.70;99.90
7000;DHT22;3540;53.242;10.408;2024-01-06T13:48:15;-0.70;99.90
7000;DHT22;3540;53.242;10.408;2024-01-06T13:50:41;-0.80;99.90
7000;DHT22;3540;53.242;10.408;2024-01-06T13:53:06;-0.80;99.90
7000;DHT22;3540;53.242;10.408;2024-01-06T13:55:32;-0.80;99.90
7000;DHT22;3540;53.242;10.408;2024-01-06T13:58:01;-0.80;99.90
7000;DHT22;3540;53.242;10.408;2024-01-06T14:00:27;-0.80;99.90
7000;DHT22;3540;53.242;10.408;2024-01-06T14:02:53;-0.80;99.90
7000;DHT22;3540;53.242;10.408;2024-01-06T14:05:19;-0.80;99.90
7000;DHT22;3540;53.242;10.408;2024-01-06T14:07:45;-0.80;99.90
7000;DHT22;3540;53.242;10.408;2024-01-06T14:10:14;-1.00;99.90
7000;DHT22;3540;53.242;10.408;2024-01-06T14:12:41;-1.00;99.90
7000;DHT22;3540;53.242;10.408;2024-01-06T14:15:07;-0.90;99.90
7000;DHT22;3540;53.242;10.408;2024-01-06T14:17:33;-0.90;99.90
7000;DHT22;3540;53.242;10.408;2024-01-06T14:19:59;-0.90;99.90
7000;DHT22;3540;53.242;10.408;2024-01-06T14:22:25;-0.90;99.90
7000;DHT22;3540;53.242;10.408;2024-01-06T14:24:51;-0.90;99.90
7000;DHT22;3540;53.242;10.408;2024-01-06T14:27:17;-0.90;99.90
7000;DHT22;3540;53.242;10.408;2024-01-06T14:29:43;-0.90;99.90
7000;DHT22;3540;53.242;10.408;2024-01-06T14:32:08;-0.90;99.90
7000;DHT22;3540;53.242;10.408;2024-01-06T14:34:34;-0.90;99.90
7000;DHT22;3540;53.242;10.408;2024-01-06T14:37:00;-0.90;99.90
7000;DHT22;3540;53.242;10.408;2024-01-06T14:39:26;-0.90;99.90
7000;DHT22;3540;53.242;10.408;2024-01-06T14:41:51;-0.90;99.90
7000;DHT22;3540;53.242;10.408;2024-01-06T14:44:18;-1.00;99.90
7000;DHT22;3540;53.242;10.408;2024-01-06T14:46:47;-1.00;99.90
7000;DHT22;3540;53.242;10.408;2024-01-06T14:49:13;-1.10;99.90
7000;DHT22;3540;53.242;10.408;2024-01-06T14:51:38;-1.10;99.90
7000;DHT22;3540;53.242;10.408;2024-01-06T14:54:04;-1.10;99.90
7000;DHT22;3540;53.242;10.408;2024-01-06T14:56:30;-1.10;99.90
7000;DHT22;3540;53.242;10.408;2024-01-06T14:58:58;-1.10;99.90
7000;DHT22;3540;53.242;10.408;2024-01-06T15:01:24;-1.10;99.90
7000;DHT22;3540;53.242;10.408;2024-01-06T15:03:49;-1.10;99.90
7000;DHT22;3540;53.242;10.408;2024-01-06T15:06:15;-1.10;99.90
7000;DHT22;3540;53.242;10.408;2024-01-06T15:08:42;-1.00;99.90
7000;DHT22;3540;53.242;10.408;2024-01-06T15:11:08;-1.00;99.90
7000;DHT22;3540;53.242;10.408;2024-01-06T15:13:34;-1.00;99.90
7000;DHT22;3540;53.242;10.408;2024-01-06T15:16:02;-1.10;99.90
7000;DHT22;3540;53.242;10.408;2024-01-06T15:18:27;-1.10;99.90
7000;DHT22;3540;53.242;10.408;2024-01-06T15:20:53;-1.10;99.90
7000;DHT22;3540;53.242;10.408;2024-01-06T15:23:19;-1.10;99.90
7000;DHT22;3540;53.242;10.408;2024-01-06T15:25:45;-1.10;99.90
7000;DHT22;3540;53.242;10.408;2024-01-06T15:28:11;-1.10;99.90
7000;DHT22;3540;53.242;10.408;2024-01-06T15:30:36;-1.10;99.90
7000;DHT22;3540;53.242;10.408;2024-01-06T15:33:02;-1.10;99.90
7000;DHT22;3540;53.242;10.408;2024-01-06T15:35:27;-1.10;99.90
7000;DHT22;3540;53.242;10.408;2024-01-06T15:37:53;-1.00;99.90
7000;DHT22;3540;53.242;10.408;2024-01-06T15:40:19;-1.10;99.90
7000;DHT22;3540;53.242;10.408;2024-01-06T15:42:45;-1.10;99.90
7000;DHT22;3540;53.242;10.408;2024-01-06T15:45:10;-1.00;99.90
7000;DHT22;3540;53.242;10.408;2024-01-06T15:47:37;-1.00;99.90
7000;DHT22;3540;53.242;10.408;2024-01-06T15:50:03;-1.00;99.90
7000;DHT22;3540;53.242;10.408;2024-01-06T15:52:30;-1.00;99.90